ADDS METAR Data INFO
IDs: Format: Raw Decoded Include TAF

Data at: 1246 UTC 19 Oct 2017

KSGJ 191156Z 01010KT 10SM SCT010 BKN043 OVC120 23/22 A3013 RMK AO2 SLP202 60000 70082 T02330217 10239 20228 51007
KSGJ 191151Z 01009KT 10SM SCT010 BKN043 OVC120 23/22 A3013 RMK AO2
KSGJ 191114Z 36009KT 10SM BKN010 BKN120 23/22 A3013 RMK AO2
KSGJ 191056Z 01008KT 10SM FEW010 BKN055 BKN110 23/22 A3013 RMK AO2 RAE04 SLP201 P0000 T02280217
KSGJ 191012Z AUTO 36009KT 10SM SCT016 BKN050 23/22 A3012 RMK AO2 RAE04 P0000
KSGJ 190956Z AUTO 36009KT 10SM -RA BKN016 BKN020 23/22 A3012 RMK AO2 RAB52 SLP199 P0000 T02330217
KSGJ 190907Z AUTO 03010KT 10SM BKN016 BKN032 23/21 A3011 RMK AO2
KSGJ 190856Z AUTO 04009KT 10SM SCT014 BKN060 23/22 A3011 RMK AO2 SLP194 T02330217 56004
KSGJ 190816Z AUTO 02010KT 10SM FEW016 SCT024 23/22 A3011 RMK AO2
KSGJ 190809Z AUTO 02011KT 10SM BKN014 BKN022 BKN045 23/22 A3011 RMK AO2
KSGJ 190756Z AUTO 03009KT 10SM FEW013 SCT020 BKN025 23/22 A3011 RMK AO2 SLP195 T02330217
KSGJ 190729Z AUTO 02013KT 10SM FEW015 SCT030 23/22 A3011 RMK AO2
KSGJ 190656Z AUTO 02014KT 10SM FEW017 BKN023 OVC043 24/21 A3012 RMK AO2 SLP198 T02390211
KSGJ 190653Z AUTO 03011KT 10SM FEW017 BKN024 OVC043 24/21 A3012 RMK AO2
KSGJ 190642Z AUTO 02014KT 10SM FEW020 BKN033 BKN043 24/21 A3012 RMK AO2
KSGJ 190604Z AUTO 03014KT 10SM BKN016 OVC033 24/21 A3013 RMK AO2
KSGJ 190556Z AUTO 03014KT 10SM SCT016 BKN030 OVC035 24/21 A3013 RMK AO2 SLP202 60082 T02390211 10244 20211 58013
KSGJ 190456Z AUTO 02015KT 10SM FEW018 OVC036 24/21 A3015 RMK AO2 SLP208 T02390211 402780211
KSGJ 190356Z AUTO 05012KT 10SM FEW038 24/19 A3016 RMK AO2 SLP213 P0001 T02440194
KSGJ 190303Z AUTO 01007KT 10SM FEW016 SCT029 BKN080 23/21 A3017 RMK AO2 P0001
KSGJ 190256Z AUTO 02008G15KT 10SM FEW014 BKN029 OVC080 23/21 A3017 RMK AO2 PK WND 10027/0229 RAB14E48 SLP215 P0004 60081 T02330211 50004
KSGJ 190233Z AUTO 11012G27KT 5SM +RA FEW007 BKN021 OVC065 22/19 A3017 RMK AO2 PK WND 10027/0229 RAB14 P0004
KSGJ 190156Z AUTO 03014G20KT 10SM FEW034 SCT041 OVC065 23/21 A3018 RMK AO2 WSHFT 0117 RAE41 SLP217 P0076 T02280206
KSGJ 190132Z AUTO 04014KT 5SM -RA BR SCT009 BKN031 OVC065 21/20 A3018 RMK AO2 WSHFT 0117 P0076
KSGJ 190126Z AUTO 05014G20KT 3SM RA BR SCT009 BKN016 OVC045 21/19 A3018 RMK AO2 P0075
KSGJ 190120Z AUTO 06017G20KT 2SM +RA BR FEW007 BKN011 OVC024 22/21 A3018 RMK AO2 VIS 1 1/4V5 P0073
KSGJ 190114Z AUTO 10013KT 1 1/2SM +RA BR SCT011 BKN018 OVC024 22/19 A3017 RMK AO2 P0056
KSGJ 190106Z AUTO 08014G17KT 2 1/2SM +RA BR FEW011 BKN016 OVC065 23/21 A3017 RMK AO2 P0024
KSGJ 190056Z AUTO 02010KT 10SM -RA SCT018 BKN045 OVC065 23/21 A3017 RMK AO2 RAB06 SLP215 P0001 T02280211
KSGJ 190026Z 04019KT 10SM FEW019 SCT025 OVC060 23/21 A3017 RMK AO2 RAB06E25 P0000
KSGJ 182356Z 03016G22KT 10SM BKN021 OVC041 24/20 A3016 RMK AO2 SLP211 T02390200 10267 20239 53004
KSGJ 182256Z 03015G21KT 10SM SCT019 BKN027 OVC037 24/20 A3015 RMK AO2 SLP207 T02390200
KSGJ 182227Z 01015G22KT 10SM SCT019 BKN038 OVC060 24/21 A3015 RMK AO2
KSGJ 182156Z 02016G20KT 10SM BKN019 BKN027 OVC048 24/21 A3015 RMK AO2 SLP208 T02440206
KSGJ 182056Z 03019G23KT 10SM FEW019 26/20 A3014 RMK AO2 SLP206 T02560200 56007
KSGJ 181956Z 03018G22KT 10SM SCT024 BKN030 BKN038 26/20 A3015 RMK AO2 SLP207 T02610200
KSGJ 181856Z 04014G22KT 10SM SCT034 27/19 A3016 RMK AO2 SLP211 T02670194
KSGJ 181756Z 04015KT 10SM FEW038 27/18 A3017 RMK AO2 SLP214 T02720178 10272 20239 58008
KSGJ 181656Z 06016KT 10SM BKN044 27/18 A3018 RMK AO2 SLP220 T02670183
KSGJ 181556Z 06016G21KT 6SM HZ BKN024 BKN029 27/19 A3019 RMK AO2 SLP223 T02670189
KSGJ 181456Z 06016KT 6SM HZ BKN024 BKN029 27/19 A3019 RMK AO2 SLP222 T02720189 51017
KSGJ 181356Z 06019G25KT 6SM HZ BKN024 BKN029 26/20 A3017 RMK AO2 PK WND 04027/1309 SLP216 T02610200
KSGJ 181256Z 04021KT 5SM HZ BKN025 OVC036 24/20 A3016 RMK AO2 PK WND 04026/1254 SLP211 T02440200
KSGJ 181156Z 04017G23KT 5SM HZ BKN024 OVC034 24/21 A3014 RMK AO2 SLP205 T02390206 10239 20233 53013
KSGJ 181056Z 03017G23KT 5SM HZ BKN021 BKN026 OVC032 24/21 A3012 RMK AO2 SLP198 T02390206
KSGJ 180956Z AUTO 03015KT 10SM BKN021 BKN035 OVC043 23/20 A3011 RMK AO2 SLP195 T02330200
KSGJ 180856Z AUTO 03016G24KT 10SM BKN021 OVC029 23/20 A3010 RMK AO2 SLP192 T02330200 56004
KSGJ 180851Z AUTO 03018G24KT 10SM BKN021 BKN028 OVC047 23/20 A3010 RMK AO2
KSGJ 180756Z AUTO 04014G20KT 10SM SCT023 OVC050 23/19 A3010 RMK AO2 SLP193 T02330194
KSGJ 180730Z AUTO 04015KT 10SM SCT023 OVC055 23/19 A3011 RMK AO2
KSGJ 180656Z AUTO 04015G21KT 10SM OVC025 23/19 A3011 RMK AO2 SLP196 T02330194
KSGJ 180622Z AUTO 04018KT 10SM BKN025 BKN032 OVC060 23/19 A3012 RMK AO2
KSGJ 180615Z AUTO 04014KT 10SM SCT025 BKN032 OVC060 23/19 A3012 RMK AO2
KSGJ 180556Z AUTO 03015G22KT 10SM BKN025 OVC034 23/19 A3012 RMK AO2 SLP199 T02330194 10233 20222 58010
KSGJ 180456Z AUTO 04017G22KT 10SM BKN025 OVC031 23/19 A3014 RMK AO2 SLP204 T02330189 402390217
KSGJ 180356Z AUTO 04019G24KT 10SM SCT023 OVC029 23/19 A3014 RMK AO2 PK WND 03026/0307 SLP206 T02330189
KSGJ 180337Z AUTO 03019KT 10SM BKN023 BKN031 OVC046 23/19 A3015 RMK AO2 PK WND 03026/0307
KSGJ 180314Z AUTO 03018G26KT 10SM SCT025 BKN037 OVC048 23/18 A3015 RMK AO2 PK WND 03026/0307
KSGJ 180256Z AUTO 03019G22KT 10SM SCT025 BKN029 OVC035 23/18 A3015 RMK AO2 SLP209 T02280183 50007
KSGJ 180212Z AUTO 03019G25KT 10SM BKN024 BKN030 OVC038 23/18 A3015 RMK AO2
KSGJ 180205Z AUTO 02018G23KT 10SM SCT024 BKN030 OVC040 23/19 A3015 RMK AO2
KSGJ 180156Z AUTO 02017G25KT 10SM BKN024 BKN028 OVC034 23/18 A3015 RMK AO2 PK WND 02026/0113 SLP209 T02280183
KSGJ 180056Z AUTO 01017G28KT 10SM BKN022 OVC029 22/19 A3014 RMK AO2 PK WND 02028/0049 SLP205 T02220189